• Join FlightAware (Why Join?)
  • Login
  • US Flag 
09:45AM EDT


 

Airport Tracker/Info


-or-


 

Live Flight TrackerFlight Track Log ✈ EJA831 ✈ 22-May-2013 ✈ KPVD - KBOS

Flight Track Log - Related Links

Times and Time Zones

All times are in EDT time to prevent confusion due to time zone crossing. See the EJA831 flight status page for this flight to view local times or setup timezone preferences in your user account.

Time Position Orientation Groundspeed Altitude Reporting Facility
EDT Latitude Longitude Course Direction KTS MPH feet Rate Location/Type
07:10AM 41.7061 -71.4447 45° Northeast 188 216 900  Level Boston Center
07:11AM 41.7069 -71.5253 271° West 199 229 3,500 2,040 Climbing Boston Center
07:12AM 41.7589 -71.5244 North 200 230 5,300 1,380 Climbing Boston Center
07:14AM 41.8500 -71.5167 North 255 293 7,000 660 Climbing KA90
07:15AM 41.9333 -71.5000 North 282 325 7,000  Level KA90
07:16AM 42.0864 -71.3238 45° Northeast  Level FlightAware Approximate
07:16AM 42.0000 -71.4500 29° Northeast 294 338 7,000  Level KA90
07:17AM 42.0667 -71.3667 43° Northeast 294 338 7,000 -180 Level KA90
07:18AM 42.1167 -71.3000 45° Northeast 290 334 6,700 -660 Descending KA90
07:19AM 42.1833 -71.2333 37° Northeast 294 338 5,700 -840 Descending KA90
07:20AM 42.2500 -71.1833 29° Northeast 258 297 5,000 -360 Descending KA90
07:21AM 42.3167 -71.1500 20° North 264 304 5,000  Level KA90
07:22AM 42.3833 -71.1167 20° North 244 281 5,000 -120 Level KA90
07:23AM 42.4500 -71.1000 10° North 225 259 4,800 -720 Descending KA90
07:24AM 42.5000 -71.0667 26° Northeast 210 242 3,600 -960 Descending KA90
07:25AM 42.5333 -71.0333 36° Northeast 211 243 3,000 -360 Descending KA90
07:26AM 42.5333 -70.9500 90° East 217 250 3,000 -120 Level KA90
07:27AM 42.5167 -70.9000 114° Southeast 175 201 2,800 -540 Descending KA90
07:28AM 42.4833 -70.9500 228° Southwest 164 189 2,000 -600 Descending KA90
07:29AM 42.4500 -70.9667 200° South 162 186 1,600 -600 Descending KA90
07:30AM 42.4167 -70.9833 200° South 146 168 800 -840 Descending KA90
07:32AM 42.3630 -71.0064 191° South  Level Estimated